Main page
METAR-TAF:

METAR-TAF

Airports :

Mardin Airport

Mardin, Turkey

latitude: 37-13-58N, longitude: 40-38-26E, elevation: 527 m

Current weather observation

The report was made 1 hour and 2 minutes ago, at 01:50 UTC
Wind 5 kt from the North, varying between North/Northwest and Northeast
Temperature 30°C
Humidity 24%
Pressure 1003 hPa
Visibility 10 km or more
no clouds below 1500 m and no cumulonimbus

METAR: LTCR 240150Z 36005KT 330V040 CAVOK 30/07 Q1003

Time: 05:52 (02:52 UTC)

Forecast

The report was made 1 hour and 12 minutes ago, at 01:40 UTC
Forecast valid from 24 at 03 UTC to 24 at 12 UTC
Wind 10 kt from the North/Northeast
Visibility 10 km or more
no clouds below 1500 m and no cumulonimbus
Becoming
from 24 at 03 UTC to 24 at 06 UTC
Wind 6 kt from the Southeast

TAF: LTCR 240140Z 2403/2412 02010KT CAVOK BECMG 2403/2406 13006KT

Weather observations and forecasts of more than 4000 airports (METAR and TAF reports).

The available stations are represented by yellow and red dots on the map.

Hover mouse over dot to see the name of the station.

Then click to see weather observations and forecasts.

To change the map : click on the green buttons with a black cross to zoom in, on the green button with a dash to zoom out, or on the green arrows for adjacent maps.


METAR-TAF: